Terminal Aerodrome Forecast
Issued by NWS Wilmington, OH

Current Version | Previous Version | Graphics & Text | Print | Product List | Glossary On
Versions: 1 2 3 4 5 6 7 8 9 10 11 12 13 14 15 16 17 18 19 20
000
FTUS41 KILN 140500
TAFCMH
TAF
KCMH 140525Z 1406/1506 18012KT P6SM BKN200
     FM141100 19017G24KT P6SM VCSH BKN050 OVC120
     FM141400 20022G30KT P6SM -SHRA OVC050
     FM141900 23016G24KT P6SM -SHRA VCTS SCT022 OVC040CB
     FM142300 28012KT P6SM -RA SCT010 OVC022
     FM150400 32016G25KT 5SM -RA BR OVC008=

USA.gov is the U.S. government's official web portal to all federal, state and local government web resources and services.